Waarschuwingen Drenthe

Code Groen. Er zijn momenteel geen waarschuwingen van kracht.

Bron: KNMI



Webcam op het Zuiden Meer informatie Webcam op het Zuiden


Webcam op het Westen Meer informatie Webcam op het Westen


Onweer radar Meer informatie blitzortung!


Regen radar  rain snow radar


Lokaal brand risico:
CBI


Regionaal brand risico: Meer informatie


Lokaal brand risico:
Gebaseerd op actuele waarde
CBI


Bezoek ook deze websites:

Template documentation
and downloads

And another site



METAR rapporten vliegvelden

   
ETWM - Meppen, Germany
Afstand tot: O 29 km
Gewijzigd: 03-02-2023 11:20
Grotendeels bewolkt  
Grotendeels bewolkt  
   Wind: NW 22.2 km/h<br />Gust to 22.2 km/h
Wind: NW 22.2 km/h
Gust to 22.2 km/h
Temperatuur: 9°C
Voelt als: 6°C
Dauwpunt: 7°C
Vochtigheid: 87%
Barometer: 1020 hPa
Bewolking: Grotendeels bewolkt
Zicht: meer dan 10 km
Bewolking: Gedeeltelijk bewolkt 1300 ft,
Grotendeels bewolkt 1600 ft
ETWM 031020Z 31012G25KT 9999 SCT013 BKN016 09/07 Q1020 WHT
EHGG - Groningen/Eelde, Netherlands
Afstand tot: NNW 47 km
Gewijzigd: 03-02-2023 10:55
Gedeeltelijk bewolkt  
Gedeeltelijk bewolkt  
   Wind: WNW 33.3 km/h<br />Gust to 33.3 km/h
Wind: WNW 33.3 km/h
Gust to 33.3 km/h
Temperatuur: 9°C
Voelt als: 5°C
Dauwpunt: 7°C
Vochtigheid: 87%
Barometer: 1020 hPa
Bewolking: Gedeeltelijk bewolkt
Zicht: meer dan 10 km
Bewolking: Licht bewolkt 1300 ft,
Gedeeltelijk bewolkt 1600 ft
EHGG 030955Z AUTO 29018G29KT 250V320 9999 FEW013 SCT016 09/07 Q1020 BECMG SCT040 TEMPO 26018G28KT BKN014
EDDG - Muenster/Osnabru, Germany
Afstand tot: ZO 87 km
Gewijzigd: 03-02-2023 11:20
Bewolking  
Bewolking  
   Wind: Westen 33.3 km/h<br />Gust to 33.3 km/h
Wind: Westen 33.3 km/h
Gust to 33.3 km/h
Temperatuur: 10°C
Voelt als: 6°C
Dauwpunt: 7°C
Vochtigheid: 82%
Barometer: 1021 hPa
Bewolking: Bewolking
Zicht: meer dan 10 km
Bewolking: Bewolking 1700 ft
EDDG 031020Z AUTO 27018G30KT 9999 OVC017 10/07 Q1021 TEMPO 26020G30KT 4000 -DZRA BKN014
EHLW - Leeuwarden Rnlaf, Netherlands
Afstand tot: NW 93 km
Gewijzigd: 03-02-2023 11:25
Bewolking  
Bewolking  
   Wind: WNW 31.5 km/h
Wind: WNW 31.5 km/h
Temperatuur: 9°C
Voelt als: 5°C
Dauwpunt: 7°C
Vochtigheid: 87%
Barometer: 1022 hPa
Bewolking: Bewolking
Zicht: meer dan 10 km
Bewolking: Bewolking 26000 ft
EHLW 031025Z AUTO 29017KT 260V330 9999 OVC260 09/07 Q1022 BLU TEMPO 29020G30KT SCT018
ETNT - Wittmundhaven(Ga, Germany
Afstand tot: NNO 100 km
Gewijzigd: 03-02-2023 11:20
Grotendeels bewolkt  
Grotendeels bewolkt  
   Wind: WNW 33.3 km/h<br />Gust to 33.3 km/h
Wind: WNW 33.3 km/h
Gust to 33.3 km/h
Temperatuur: 9°C
Voelt als: 5°C
Dauwpunt: 6°C
Vochtigheid: 82%
Barometer: 1018 hPa
Bewolking: Grotendeels bewolkt
Zicht: meer dan 10 km
Bewolking: Licht bewolkt 1600 ft,
Grotendeels bewolkt 30000 ft
ETNT 031020Z 30018G32KT 9999 FEW016 BKN300 09/06 Q1018 BLACKBLU+
ETND - Diepholz (ger-Af, Germany
Afstand tot: O 104 km
Gewijzigd: 03-02-2023 11:20
Wat regen mogelijk, Motregen, Grotendeels bewolkt  
Wat regen mogelijk, Motregen, Grotendeels bewolkt  
   Wind: WNW 27.8 km/h
Wind: WNW 27.8 km/h
Temperatuur: 9°C
Voelt als: 6°C
Dauwpunt: 7°C
Vochtigheid: 87%
Barometer: 1019 hPa
Bewolking: Grotendeels bewolkt
Zicht: 9 km
Bewolking: Licht bewolkt 900 ft,
Grotendeels bewolkt 1300 ft
ETND 031020Z 29015KT 9000 -RADZ FEW009 BKN013 09/07 Q1019 GRN
ETNT - Wittmundhaven(Ga, Germany
Afstand tot: NNO 102 km
Gewijzigd: 03-02-2023 11:20
Grotendeels bewolkt  
Grotendeels bewolkt  
   Wind: WNW 33.3 km/h<br />Gust to 33.3 km/h
Wind: WNW 33.3 km/h
Gust to 33.3 km/h
Temperatuur: 9°C
Voelt als: 5°C
Dauwpunt: 6°C
Vochtigheid: 82%
Barometer: 1018 hPa
Bewolking: Grotendeels bewolkt
Zicht: meer dan 10 km
Bewolking: Licht bewolkt 1600 ft,
Grotendeels bewolkt 30000 ft
ETNT 031020Z 30018G32KT 9999 FEW016 BKN300 09/06 Q1018 BLACKBLU+
EHDL - Deelen Rnlafb, Netherlands
Afstand tot: ZW 103 km
Gewijzigd: 03-02-2023 11:25
Bewolking  
Bewolking  
   Wind: Westen 27.8 km/h<br />Gust to 27.8 km/h
Wind: Westen 27.8 km/h
Gust to 27.8 km/h
Temperatuur: 10°C
Voelt als: 7°C
Dauwpunt: 7°C
Vochtigheid: 82%
Barometer: 1024 hPa
Bewolking: Bewolking
Zicht: meer dan 10 km
Bewolking: Bewolking 1500 ft
EHDL 031025Z AUTO 28015G25KT 220V350 9999 OVC015 10/07 Q1024 WHT
EHMA - Awg-1 Sea, Netherlands
Afstand tot: NW 105 km
Gewijzigd: 03-02-2023 11:25
Gedeeltelijk bewolkt  
Gedeeltelijk bewolkt  
   Wind: WNW 53.7 km/h
Wind: WNW 53.7 km/h
Temperatuur: 8°C
Voelt als: 3°C
Dauwpunt: 6°C
Vochtigheid: 87%
Barometer: 1020 hPa
Bewolking: Gedeeltelijk bewolkt
Zicht: 7 km
Bewolking: Gedeeltelijk bewolkt
EHMA 031025Z AUTO 29029KT 7000 NSC 08/06 Q1020
EDDW - Bremen, Germany
Afstand tot: ONO 135 km
Gewijzigd: 03-02-2023 11:20
Licht bewolkt  
Licht bewolkt  
   Wind: WNW 38.9 km/h<br />Gust to 38.9 km/h
Wind: WNW 38.9 km/h
Gust to 38.9 km/h
Temperatuur: 9°C
Voelt als: 4°C
Dauwpunt: 5°C
Vochtigheid: 76%
Barometer: 1017 hPa
Bewolking: Licht bewolkt
Zicht: meer dan 10 km
Bewolking: Licht bewolkt 2700 ft
EDDW 031020Z AUTO 29021G31KT 9999 FEW027 09/05 Q1017 TEMPO 29025G40KT
EHVL - Vlieland Island, Netherlands
Afstand tot: WNW 138 km
Gewijzigd: 03-02-2023 11:25
Nevel, Bewolking  
Nevel, Bewolking  
   Wind: WNW 46.3 km/h
Wind: WNW 46.3 km/h
Temperatuur: 9°C
Voelt als: 4°C
Dauwpunt: 7°C
Vochtigheid: 87%
Barometer: 1023 hPa
Bewolking: Bewolking
Zicht: 7 km
Bewolking: Bewolking 21000 ft
EHVL 031025Z AUTO 29025KT 7000 BR OVC210 09/07 Q1023 WHT
EDLV - Niederrhein, Germany
Afstand tot: ZZW 139 km
Gewijzigd: 03-02-2023 11:20
Bewolking  
Bewolking  
   Wind: Westen 35.2 km/h
Wind: Westen 35.2 km/h
Temperatuur: 10°C
Voelt als: 6°C
Dauwpunt: 7°C
Vochtigheid: 82%
Barometer: 1025 hPa
Bewolking: Bewolking
Zicht: meer dan 10 km
Bewolking: Bewolking 1700 ft
EDLV 031020Z 27019KT 9999 OVC017 10/07 Q1025
EHKD - De Kooy (navy), Netherlands
Afstand tot: W 144 km
Gewijzigd: 03-02-2023 11:25
Bewolking  
Bewolking  
   Wind: WNW 33.3 km/h
Wind: WNW 33.3 km/h
Temperatuur: 9°C
Voelt als: 5°C
Dauwpunt: 7°C
Vochtigheid: 87%
Barometer: 1024 hPa
Bewolking: Bewolking
Zicht: meer dan 10 km
Bewolking: Licht bewolkt 1400 ft,
Grotendeels bewolkt 3500 ft,
Bewolking 4100 ft
EHKD 031025Z AUTO 29018KT 250V320 9999 FEW014 BKN035 OVC041 09/07 Q1024 BLU TEMPO SCT015
EDLW - Dortmund/Wickede, Germany
Afstand tot: ZZO 150 km
Gewijzigd: 03-02-2023 11:20
Bewolking  
Bewolking  
   Wind: WZW 27.8 km/h
Wind: WZW 27.8 km/h
Temperatuur: 9°C
Voelt als: 6°C
Dauwpunt: 6°C
Vochtigheid: 82%
Barometer: 1023 hPa
Bewolking: Bewolking
Zicht: meer dan 10 km
Bewolking: Bewolking 1400 ft
EDLW 031020Z 25015KT 220V280 9999 OVC014 09/06 Q1023
EHVK - Volkel Rnlafb, Netherlands
Afstand tot: ZZW 149 km
Gewijzigd: 03-02-2023 11:25
Bewolking  
Bewolking  
   Wind: Westen 24.1 km/h<br />Gust to 24.1 km/h
Wind: Westen 24.1 km/h
Gust to 24.1 km/h
Temperatuur: 10°C
Voelt als: 7°C
Dauwpunt: 7°C
Vochtigheid: 82%
Barometer: 1025 hPa
Bewolking: Bewolking
Zicht: meer dan 10 km
Bewolking: Grotendeels bewolkt 1400 ft,
Bewolking 1600 ft
EHVK 031025Z AUTO 26013G23KT 230V310 9999 BKN014 OVC016 10/07 Q1025 GRN TEMPO 27015G25KT
EDLW - Dortmund/Wickede, Germany
Afstand tot: ZZO 150 km
Gewijzigd: 03-02-2023 11:20
Bewolking  
Bewolking  
   Wind: WZW 27.8 km/h
Wind: WZW 27.8 km/h
Temperatuur: 9°C
Voelt als: 6°C
Dauwpunt: 6°C
Vochtigheid: 82%
Barometer: 1023 hPa
Bewolking: Bewolking
Zicht: meer dan 10 km
Bewolking: Bewolking 1400 ft
EDLW 031020Z 25015KT 220V280 9999 OVC014 09/06 Q1023
EHMG - L9-Ff-1 Sea, Netherlands
Afstand tot: NW 155 km
Gewijzigd: 03-02-2023 11:25
  
  
   Wind: Kalm
Wind: Kalm
EHMG 031025Z AUTO ///34KT 9000 NSC 08/05 Q1023
ETHB - Buckeburg(Ger-Ar, Germany
Afstand tot: OZO 161 km
Gewijzigd: 03-02-2023 11:20
Lichte (mot)regen, Regen, Grotendeels bewolkt  
Lichte (mot)regen, Regen, Grotendeels bewolkt  
   Wind: WNW 42.6 km/h<br />Gust to 42.6 km/h
Wind: WNW 42.6 km/h
Gust to 42.6 km/h
Temperatuur: 8°C
Voelt als: 3°C
Dauwpunt: 7°C
Vochtigheid: 93%
Barometer: 1018 hPa
Bewolking: Grotendeels bewolkt
Zicht: 4 km
Bewolking: Licht bewolkt 800 ft,
Grotendeels bewolkt 1000 ft,
Grotendeels bewolkt 2000 ft
ETHB 031020Z 29023G33KT 4000 -DZRA FEW008 BKN010 BKN020 08/07 Q1018 REDZ GRN GRN TEMPO YLO
ETMN - Nordholz (ger-Na, Germany
Afstand tot: NO 164 km
Gewijzigd: 03-02-2023 11:20
Grotendeels bewolkt  
Grotendeels bewolkt  
   Wind: WNW 44.4 km/h
Wind: WNW 44.4 km/h
Temperatuur: 7°C
Voelt als: 2°C
Dauwpunt: 3°C
Vochtigheid: 76%
Barometer: 1015 hPa
Bewolking: Grotendeels bewolkt
Zicht: 8 km
Bewolking: Licht bewolkt 2500 ft,
Grotendeels bewolkt 23000 ft
ETMN 031020Z 30024KT 8000 FEW025 BKN230 07/03 Q1015 BLU+BLU
EDDL - Duesseldorf, Germany
Afstand tot: Z 165 km
Gewijzigd: 03-02-2023 11:20
Bewolking  
Bewolking  
   Wind: WZW 29.6 km/h
Wind: WZW 29.6 km/h
Temperatuur: 9°C
Voelt als: 6°C
Dauwpunt: 7°C
Vochtigheid: 87%
Barometer: 1025 hPa
Bewolking: Bewolking
Zicht: meer dan 10 km
Bewolking: Grotendeels bewolkt 1100 ft,
Bewolking 1500 ft
EDDL 031020Z AUTO 25016KT 9999 BKN011 OVC015 09/07 Q1025 TEMPO 25015G25KT
EDLN - Monchengladbach, Germany
Afstand tot: Z 174 km
Gewijzigd: 03-02-2023 11:20
Bewolking  
Bewolking  
   Wind: Westen 16.7 km/h
Wind: Westen 16.7 km/h
Temperatuur: 9°C
Voelt als: 7°C
Dauwpunt: 7°C
Vochtigheid: 87%
Barometer: 1026 hPa
Bewolking: Bewolking
Zicht: 8 km
Bewolking: Grotendeels bewolkt 1200 ft,
Bewolking 1800 ft
EDLN 031020Z 26009KT 230V320 8000 BKN012 OVC018 09/07 Q1026

Script ontwikkeld door  Saratoga-weather.org Aangepast voor de template door  Weerstation Leuven

U vindt ons ook hier:

Het Weer Aktueel

European Weather Network

Weather Underground

Wetterpage 24

Apparatuur in gebruik:

Weerstation
Davis VP2

Weerprogramma
Meteohub

Hardware
RaspberryPI, Wireless Weather Envoy, MeteoStick, TP-Link MR3020

Leverancier
Weerhuisje.nl weerstations

Davis VP2

Meteohub

RaspberryPI, Wireless Weather Envoy, MeteoStick, TP-Link MR3020

Weerhuisje.nl weerstations